createdAt,value
2022-09-24T00:00:40.566Z,987.18
2022-09-24T00:01:40.636Z,987.16
2022-09-24T00:02:40.468Z,987.16
2022-09-24T00:03:40.329Z,987.22
2022-09-24T00:04:40.251Z,987.20
2022-09-24T00:05:40.179Z,987.29
2022-09-24T00:06:40.091Z,987.27
2022-09-24T00:07:40.015Z,987.27
2022-09-24T00:08:39.935Z,987.29
2022-09-24T00:09:39.875Z,987.27
2022-09-24T00:10:39.801Z,987.25
2022-09-24T00:11:39.700Z,987.21
2022-09-24T00:12:39.618Z,987.26
2022-09-24T00:13:39.542Z,987.25
2022-09-24T00:14:39.462Z,987.24
2022-09-24T00:15:39.387Z,987.20
2022-09-24T00:16:39.389Z,987.17
2022-09-24T00:17:39.224Z,987.12
2022-09-24T00:18:39.144Z,987.10
2022-09-24T00:19:39.069Z,987.10
2022-09-24T00:20:39.188Z,987.08
2022-09-24T00:21:38.907Z,987.11
2022-09-24T00:22:38.830Z,987.09
2022-09-24T00:23:38.752Z,987.06
2022-09-24T00:24:38.671Z,987.04
2022-09-24T00:25:38.611Z,987.05
2022-09-24T00:26:38.514Z,987.08
2022-09-24T00:27:38.436Z,987.08
2022-09-24T00:28:38.356Z,987.03
2022-09-24T00:29:38.278Z,987.07
2022-09-24T00:30:38.201Z,987.07
2022-09-24T00:31:38.262Z,987.07
2022-09-24T00:32:38.040Z,987.10
2022-09-24T00:33:37.963Z,987.06
2022-09-24T00:34:37.886Z,987.10
2022-09-24T00:35:38.056Z,987.11
2022-09-24T00:36:37.726Z,987.09
2022-09-24T00:37:37.646Z,987.12
2022-09-24T00:38:37.568Z,987.10
2022-09-24T00:39:37.490Z,987.13
2022-09-24T00:40:37.467Z,987.14
2022-09-24T00:41:37.352Z,987.12
2022-09-24T00:42:37.250Z,987.15
2022-09-24T00:43:37.173Z,987.14
2022-09-24T00:44:37.093Z,987.10
2022-09-24T00:45:37.015Z,987.15
2022-09-24T00:46:36.988Z,987.10
2022-09-24T00:47:36.859Z,987.12
2022-09-24T00:48:36.779Z,987.08
2022-09-24T00:49:36.698Z,987.07
2022-09-24T00:50:36.619Z,987.06
2022-09-24T00:51:36.539Z,987.02
2022-09-24T00:52:36.462Z,987.02
2022-09-24T00:53:36.381Z,986.99
2022-09-24T00:54:36.302Z,986.97
2022-09-24T00:55:38.844Z,986.93
2022-09-24T00:56:36.144Z,986.91
2022-09-24T00:57:36.084Z,986.95
2022-09-24T00:58:36.084Z,986.92
2022-09-24T00:59:35.913Z,986.90
2022-09-24T01:00:35.866Z,986.88
2022-09-24T01:01:35.832Z,986.90
2022-09-24T01:02:35.767Z,986.89
2022-09-24T01:03:35.592Z,986.87
2022-09-24T01:04:35.511Z,986.85
2022-09-24T01:05:35.432Z,986.86
2022-09-24T01:06:35.353Z,986.84
2022-09-24T01:07:35.276Z,986.82
2022-09-24T01:08:35.200Z,986.80
2022-09-24T01:09:35.115Z,986.78
2022-09-24T01:10:35.035Z,986.79
2022-09-24T01:11:34.958Z,986.77
2022-09-24T01:12:34.886Z,986.72
2022-09-24T01:13:34.815Z,986.69
2022-09-24T01:14:34.719Z,986.65
2022-09-24T01:15:34.642Z,986.64
2022-09-24T01:16:34.658Z,986.59
2022-09-24T01:17:34.482Z,986.59
2022-09-24T01:18:34.402Z,986.53
2022-09-24T01:19:34.331Z,986.53
2022-09-24T01:20:34.243Z,986.53
2022-09-24T01:21:34.165Z,986.52
2022-09-24T01:22:34.085Z,986.53
2022-09-24T01:23:34.006Z,986.46
2022-09-24T01:24:33.926Z,986.45
2022-09-24T01:25:33.846Z,986.45
2022-09-24T01:26:33.769Z,986.43
2022-09-24T01:27:33.688Z,986.44
2022-09-24T01:28:33.660Z,986.45
2022-09-24T01:29:33.549Z,986.41
2022-09-24T01:30:33.453Z,986.39
2022-09-24T01:31:33.434Z,986.39
2022-09-24T01:32:33.349Z,986.37
2022-09-24T01:33:33.557Z,986.37
2022-09-24T01:34:33.134Z,986.37
2022-09-24T01:35:33.061Z,986.35
2022-09-24T01:36:32.979Z,986.39
2022-09-24T01:37:32.896Z,986.41
2022-09-24T01:38:32.820Z,986.36
2022-09-24T01:39:32.740Z,986.36
2022-09-24T01:40:32.871Z,986.38
2022-09-24T01:41:32.582Z,986.34
2022-09-24T01:42:32.500Z,986.35
2022-09-24T01:43:32.432Z,986.36
2022-09-24T01:44:32.345Z,986.33
2022-09-24T01:45:32.284Z,986.35
2022-09-24T01:46:32.204Z,986.33
2022-09-24T01:47:34.552Z,986.37
2022-09-24T01:48:32.024Z,986.34
2022-09-24T01:49:31.946Z,986.35
2022-09-24T01:50:31.866Z,986.35
2022-09-24T01:52:31.712Z,986.35
2022-09-24T01:53:31.631Z,986.35
2022-09-24T01:54:31.549Z,986.33
2022-09-24T01:55:31.469Z,986.35
2022-09-24T01:56:31.392Z,986.33
2022-09-24T01:57:31.309Z,986.32
2022-09-24T01:58:31.232Z,986.33
2022-09-24T01:59:31.153Z,986.30
2022-09-24T02:00:31.137Z,986.29
2022-09-24T02:01:31.011Z,986.32
2022-09-24T02:02:31.067Z,986.29
2022-09-24T02:03:30.842Z,986.33
2022-09-24T02:05:13.237Z,986.37
2022-09-24T02:06:13.154Z,986.30
2022-09-24T02:07:13.079Z,986.28
2022-09-24T02:08:12.995Z,986.26
2022-09-24T02:09:12.915Z,986.23
2022-09-24T02:10:12.836Z,986.24
2022-09-24T02:11:12.757Z,986.22
2022-09-24T02:12:12.675Z,986.19
2022-09-24T02:13:12.595Z,986.21
2022-09-24T02:14:12.514Z,986.22
2022-09-24T02:15:12.474Z,986.21
2022-09-24T02:16:12.411Z,986.21
2022-09-24T02:17:12.292Z,986.22
2022-09-24T02:18:12.230Z,986.25
2022-09-24T02:19:12.133Z,986.23
2022-09-24T02:20:12.035Z,986.25
2022-09-24T02:21:11.957Z,986.22
2022-09-24T02:22:11.874Z,986.21
2022-09-24T02:23:11.830Z,986.20
2022-09-24T02:24:11.713Z,986.20
2022-09-24T02:25:11.632Z,986.18
2022-09-24T02:26:11.551Z,986.21
2022-09-24T02:27:11.529Z,986.19
2022-09-24T02:28:11.389Z,986.24
2022-09-24T02:29:11.311Z,986.18
2022-09-24T02:30:11.231Z,986.16
2022-09-24T02:31:11.374Z,986.16
2022-09-24T02:32:11.075Z,986.13
2022-09-24T02:33:11.006Z,986.15
2022-09-24T02:34:10.957Z,986.17
2022-09-24T02:35:10.830Z,986.13
2022-09-24T02:36:10.747Z,986.17
2022-09-24T02:37:10.666Z,986.16
2022-09-24T02:38:10.584Z,986.14
2022-09-24T02:39:10.504Z,986.19
2022-09-24T02:40:10.503Z,986.20
2022-09-24T02:41:10.343Z,986.17
2022-09-24T02:42:10.262Z,986.19
2022-09-24T02:43:10.182Z,986.20
2022-09-24T02:44:10.221Z,986.18
2022-09-24T02:45:10.021Z,986.14
2022-09-24T02:46:09.995Z,986.13
2022-09-24T02:47:09.861Z,986.08
2022-09-24T02:48:09.777Z,986.06
2022-09-24T02:49:09.719Z,986.05
2022-09-24T02:50:09.616Z,986.04
2022-09-24T02:51:09.537Z,986.00
2022-09-24T02:52:09.454Z,986.03
2022-09-24T02:53:09.374Z,986.02
2022-09-24T02:54:09.367Z,986.00
2022-09-24T02:55:09.215Z,986.01
2022-09-24T02:56:09.129Z,985.98
2022-09-24T02:57:09.052Z,986.02
2022-09-24T02:58:08.969Z,986.01
2022-09-24T02:59:08.893Z,986.01
2022-09-24T03:00:08.805Z,986.02
2022-09-24T03:01:08.730Z,986.01
2022-09-24T03:02:08.744Z,986.03
2022-09-24T03:03:08.635Z,986.01
2022-09-24T03:04:08.629Z,986.03
2022-09-24T03:05:08.506Z,986.02
2022-09-24T03:06:08.322Z,985.98
2022-09-24T03:07:08.243Z,985.97
2022-09-24T03:08:08.163Z,985.97
2022-09-24T03:09:08.084Z,985.96
2022-09-24T03:10:07.996Z,985.97
2022-09-24T03:11:07.917Z,985.99
2022-09-24T03:12:07.836Z,986.00
2022-09-24T03:13:07.756Z,986.02
2022-09-24T03:14:07.794Z,986.05
2022-09-24T03:15:07.595Z,986.05
2022-09-24T03:16:07.542Z,986.07
2022-09-24T03:17:07.431Z,986.09
2022-09-24T03:18:07.357Z,986.13
2022-09-24T03:19:07.269Z,986.14
2022-09-24T03:20:07.185Z,986.10
2022-09-24T03:21:07.126Z,986.14
2022-09-24T03:22:07.026Z,986.13
2022-09-24T03:23:06.944Z,986.17
2022-09-24T03:24:06.932Z,986.13
2022-09-24T03:25:06.784Z,986.14
2022-09-24T03:26:06.702Z,986.14
2022-09-24T03:27:06.620Z,986.20
2022-09-24T03:28:06.537Z,986.19
2022-09-24T03:29:06.461Z,986.21
2022-09-24T03:30:06.378Z,986.21
2022-09-24T03:31:09.109Z,986.20
2022-09-24T03:32:06.212Z,986.16
2022-09-24T03:33:06.131Z,986.19
2022-09-24T03:34:06.051Z,986.17
2022-09-24T03:35:05.967Z,986.10
2022-09-24T03:36:05.888Z,986.14
2022-09-24T03:37:07.278Z,986.14
2022-09-24T03:39:38.231Z,986.10
2022-09-24T03:40:38.244Z,986.12
2022-09-24T03:41:38.070Z,986.12
2022-09-24T03:42:37.986Z,986.10
2022-09-24T03:43:37.903Z,986.09
2022-09-24T03:44:37.822Z,986.04
2022-09-24T03:45:37.744Z,986.01
2022-09-24T03:46:37.706Z,986.01
2022-09-24T03:47:37.578Z,985.99
2022-09-24T03:48:37.498Z,985.96
2022-09-24T03:49:37.417Z,985.94
2022-09-24T03:50:37.333Z,985.93
2022-09-24T03:51:37.254Z,985.84
2022-09-24T03:52:37.239Z,985.85
2022-09-24T03:53:37.090Z,985.83
2022-09-24T03:54:37.006Z,985.79
2022-09-24T03:55:36.928Z,985.79
2022-09-24T03:56:36.844Z,985.75
2022-09-24T03:57:36.764Z,985.70
2022-09-24T03:58:36.714Z,985.66
2022-09-24T03:59:36.642Z,985.62
2022-09-24T04:00:40.944Z,985.60
2022-09-24T04:01:36.858Z,985.60
2022-09-24T04:02:36.862Z,985.57
2022-09-24T04:03:36.333Z,985.55
2022-09-24T04:04:36.230Z,985.51
2022-09-24T04:05:36.148Z,985.53
2022-09-24T04:06:36.671Z,985.50
2022-09-24T04:07:35.952Z,985.54
2022-09-24T04:08:35.911Z,985.51
2022-09-24T04:09:35.786Z,985.51
2022-09-24T04:10:35.704Z,985.50
2022-09-24T04:11:35.620Z,985.55
2022-09-24T04:12:35.540Z,985.53
2022-09-24T04:13:35.494Z,985.55
2022-09-24T04:14:35.417Z,985.52
2022-09-24T04:15:35.843Z,985.53
2022-09-24T04:16:35.297Z,985.54
2022-09-24T04:20:35.093Z,985.56
2022-09-24T04:21:35.155Z,985.56
2022-09-24T04:23:34.651Z,985.60
2022-09-24T04:24:34.902Z,985.59
2022-09-24T04:26:34.442Z,985.65
2022-09-24T04:27:34.358Z,985.63
2022-09-24T04:28:34.279Z,985.65
2022-09-24T04:29:34.364Z,985.60
2022-09-24T04:30:34.525Z,985.54
2022-09-24T04:31:34.160Z,985.56
2022-09-24T04:32:33.955Z,985.55
2022-09-24T04:33:33.869Z,985.56
2022-09-24T04:35:33.717Z,985.54
2022-09-24T04:39:33.383Z,985.56
2022-09-24T04:42:33.168Z,985.55
2022-09-24T04:43:33.062Z,985.57
2022-09-24T04:44:32.981Z,985.63
2022-09-24T04:45:32.896Z,985.63
2022-09-24T04:46:33.595Z,985.70
2022-09-24T04:47:32.738Z,985.73
2022-09-24T04:48:32.857Z,985.70
2022-09-24T04:49:32.576Z,985.72
2022-09-24T04:50:32.493Z,985.71
2022-09-24T04:52:32.292Z,985.72
2022-09-24T04:54:32.428Z,985.71
2022-09-24T04:55:32.380Z,985.68
2022-09-24T04:56:32.003Z,985.69
2022-09-24T04:57:31.940Z,985.69
2022-09-24T04:58:31.845Z,985.69
2022-09-24T04:59:31.758Z,985.68
2022-09-24T05:00:31.883Z,985.68
2022-09-24T05:01:31.871Z,985.64
2022-09-24T05:02:31.697Z,985.65
2022-09-24T05:03:32.141Z,985.66
2022-09-24T05:04:31.355Z,985.63
2022-09-24T05:05:31.270Z,985.64
2022-09-24T05:06:31.393Z,985.62
2022-09-24T05:07:31.108Z,985.57
2022-09-24T05:08:31.027Z,985.54
2022-09-24T05:09:30.946Z,985.55
2022-09-24T05:10:30.862Z,985.54
2022-09-24T05:11:31.188Z,985.51
2022-09-24T05:12:30.701Z,985.57
2022-09-24T05:13:30.615Z,985.56
2022-09-24T05:15:30.462Z,985.63
2022-09-24T05:17:30.302Z,985.62
2022-09-24T05:18:30.418Z,985.62
2022-09-24T05:19:31.141Z,985.65
2022-09-24T05:20:30.048Z,985.66
2022-09-24T05:21:29.970Z,985.68
2022-09-24T05:22:29.886Z,985.73
2022-09-24T05:24:29.724Z,985.72
2022-09-24T05:25:29.846Z,985.72
2022-09-24T05:27:29.682Z,985.72
2022-09-24T05:29:29.314Z,985.70
2022-09-24T05:31:29.457Z,985.64
2022-09-24T05:33:29.192Z,985.65
2022-09-24T05:34:29.110Z,985.65
2022-09-24T05:35:29.132Z,985.65
2022-09-24T05:37:28.865Z,985.60
2022-09-24T05:40:28.789Z,985.60
2022-09-24T05:41:29.053Z,985.59
2022-09-24T05:42:28.464Z,985.64
2022-09-24T05:43:28.177Z,985.65
2022-09-24T05:44:28.101Z,985.67
2022-09-24T05:46:27.955Z,985.72
2022-09-24T05:47:27.852Z,985.71
2022-09-24T05:48:29.088Z,985.73
2022-09-24T05:49:27.694Z,985.73
2022-09-24T05:50:27.823Z,985.75
2022-09-24T05:51:27.493Z,985.78
2022-09-24T05:52:27.644Z,985.79
2022-09-24T05:53:27.569Z,985.84
2022-09-24T05:55:32.059Z,985.81
2022-09-24T05:56:27.529Z,985.85
2022-09-24T05:57:27.243Z,985.85
2022-09-24T05:58:26.965Z,985.83
2022-09-24T06:00:26.801Z,985.83
2022-09-24T06:02:26.638Z,985.83
2022-09-24T06:04:26.786Z,985.90
2022-09-24T06:05:26.913Z,985.89
2022-09-24T06:06:26.317Z,985.91
2022-09-24T06:07:26.240Z,985.87
2022-09-24T06:08:26.157Z,985.89
2022-09-24T06:09:26.081Z,985.82
2022-09-24T06:11:26.122Z,985.84
2022-09-24T06:12:25.842Z,985.83
2022-09-24T06:13:25.756Z,985.80
2022-09-24T06:14:25.679Z,985.81
2022-09-24T06:17:25.640Z,985.79
2022-09-24T06:18:25.362Z,985.77
2022-09-24T06:19:25.279Z,985.81
2022-09-24T06:21:25.253Z,985.85
2022-09-24T06:22:28.410Z,985.87
2022-09-24T06:23:24.925Z,985.84
2022-09-24T06:24:25.080Z,985.81
2022-09-24T06:25:25.012Z,985.82
2022-09-24T06:26:24.721Z,985.78
2022-09-24T06:27:24.608Z,985.76
2022-09-24T06:29:24.485Z,985.76
2022-09-24T06:30:24.407Z,985.82
2022-09-24T06:31:24.573Z,985.85
2022-09-24T06:32:24.212Z,985.88
2022-09-24T06:33:24.165Z,985.88
2022-09-24T06:34:24.290Z,985.89
2022-09-24T06:35:24.005Z,985.91
2022-09-24T06:36:23.931Z,985.87
2022-09-24T06:37:23.874Z,985.92
2022-09-24T06:50:40.131Z,986.09
2022-09-24T06:51:40.050Z,986.08
2022-09-24T06:52:39.992Z,986.07
2022-09-24T06:53:39.893Z,986.03
2022-09-24T06:54:39.815Z,986.03
2022-09-24T06:55:39.741Z,986.01
2022-09-24T06:56:39.656Z,986.02
2022-09-24T06:57:39.577Z,985.98
2022-09-24T06:58:39.750Z,985.96
2022-09-24T06:59:39.422Z,985.98
2022-09-24T07:00:39.433Z,985.93
2022-09-24T07:01:39.416Z,985.93
2022-09-24T07:02:39.266Z,985.97
2022-09-24T07:03:39.107Z,985.97
2022-09-24T07:04:39.028Z,985.98
2022-09-24T07:05:43.426Z,986.01
2022-09-24T07:06:38.875Z,986.02
2022-09-24T07:07:38.791Z,986.03
2022-09-24T07:08:38.734Z,986.00
2022-09-24T07:09:38.635Z,985.99
2022-09-24T07:10:38.559Z,986.03
2022-09-24T07:11:38.480Z,986.05
2022-09-24T07:12:38.401Z,986.02
2022-09-24T07:13:38.330Z,986.02
2022-09-24T07:14:38.243Z,986.09
2022-09-24T07:15:38.262Z,986.06
2022-09-24T07:16:38.087Z,986.08
2022-09-24T07:17:38.009Z,986.06
2022-09-24T07:18:37.933Z,986.06
2022-09-24T07:19:37.853Z,986.07
2022-09-24T07:20:37.776Z,986.07
2022-09-24T07:21:37.698Z,986.05
2022-09-24T07:22:37.627Z,986.07
2022-09-24T07:23:37.541Z,986.04
2022-09-24T07:24:37.482Z,986.06
2022-09-24T07:25:37.385Z,986.10
2022-09-24T07:26:37.311Z,986.08
2022-09-24T07:27:37.230Z,986.06
2022-09-24T07:28:37.156Z,986.10
2022-09-24T07:29:37.074Z,986.14
2022-09-24T07:30:37.025Z,986.11
2022-09-24T07:31:37.033Z,986.14
2022-09-24T07:32:36.845Z,986.14
2022-09-24T07:33:36.767Z,986.11
2022-09-24T07:34:36.690Z,986.15
2022-09-24T07:35:36.611Z,986.14
2022-09-24T07:36:36.533Z,986.10
2022-09-24T07:37:36.457Z,986.14
2022-09-24T07:38:36.471Z,986.14
2022-09-24T07:39:36.303Z,986.17
2022-09-24T07:40:36.476Z,986.23
2022-09-24T07:41:41.384Z,986.21
2022-09-24T07:42:36.072Z,986.23
2022-09-24T07:43:36.148Z,986.23
2022-09-24T07:44:35.920Z,986.27
2022-09-24T07:45:35.842Z,986.29
2022-09-24T07:46:35.838Z,986.29
2022-09-24T07:47:35.688Z,986.35
2022-09-24T07:48:35.610Z,986.32
2022-09-24T07:49:35.685Z,986.30
2022-09-24T07:50:35.456Z,986.34
2022-09-24T07:51:35.383Z,986.32
2022-09-24T07:52:35.304Z,986.33
2022-09-24T07:53:35.225Z,986.33
2022-09-24T07:54:35.149Z,986.33
2022-09-24T07:55:35.073Z,986.33
2022-09-24T07:56:35.015Z,986.36
2022-09-24T07:57:35.069Z,986.35
2022-09-24T07:58:34.843Z,986.30
2022-09-24T07:59:34.793Z,986.34
2022-09-24T08:00:34.689Z,986.35
2022-09-24T08:01:34.691Z,986.35
2022-09-24T08:02:34.538Z,986.35
2022-09-24T08:03:34.518Z,986.40
2022-09-24T08:04:34.385Z,986.47
2022-09-24T08:05:34.306Z,986.48
2022-09-24T08:06:37.966Z,986.52
2022-09-24T08:07:34.158Z,986.55
2022-09-24T08:08:34.079Z,986.54
2022-09-24T08:09:34.002Z,986.55
2022-09-24T08:10:34.084Z,986.54
2022-09-24T08:11:33.851Z,986.52
2022-09-24T08:12:33.898Z,986.49
2022-09-24T08:13:33.699Z,986.46
2022-09-24T08:14:33.624Z,986.46
2022-09-24T08:15:33.555Z,986.43
2022-09-24T08:16:33.474Z,986.41
2022-09-24T08:17:33.394Z,986.45
2022-09-24T08:18:33.323Z,986.41
2022-09-24T08:19:33.245Z,986.42
2022-09-24T08:20:33.166Z,986.43
2022-09-24T08:21:33.091Z,986.42
2022-09-24T08:22:33.017Z,986.44
2022-09-24T08:23:32.938Z,986.45
2022-09-24T08:24:32.864Z,986.43
2022-09-24T08:25:32.787Z,986.39
2022-09-24T08:26:32.711Z,986.38
2022-09-24T08:27:32.636Z,986.38
2022-09-24T08:28:32.577Z,986.40
2022-09-24T08:29:32.481Z,986.39
2022-09-24T08:30:32.411Z,986.35
2022-09-24T08:31:32.399Z,986.41
2022-09-24T08:32:32.258Z,986.39
2022-09-24T08:33:32.177Z,986.44
2022-09-24T08:34:32.105Z,986.41
2022-09-24T08:35:32.025Z,986.43
2022-09-24T08:36:31.950Z,986.43
2022-09-24T08:37:31.873Z,986.43
2022-09-24T08:38:31.799Z,986.43
2022-09-24T08:39:31.724Z,986.44
2022-09-24T08:40:31.755Z,986.44
2022-09-24T08:41:31.580Z,986.44
2022-09-24T08:42:31.498Z,986.46
2022-09-24T08:43:31.421Z,986.45
2022-09-24T08:44:31.366Z,986.41
2022-09-24T08:45:31.271Z,986.46
2022-09-24T08:46:31.271Z,986.45
2022-09-24T08:47:31.116Z,986.49
2022-09-24T08:48:31.042Z,986.49
2022-09-24T08:49:30.970Z,986.44
2022-09-24T08:50:30.897Z,986.45
2022-09-24T08:51:33.429Z,986.44
2022-09-24T08:52:30.742Z,986.42
2022-09-24T08:53:30.666Z,986.45
2022-09-24T08:54:30.598Z,986.45
2022-09-24T08:55:30.516Z,986.45
2022-09-24T08:56:30.441Z,986.44
2022-09-24T08:57:30.365Z,986.43
2022-09-24T08:58:30.329Z,986.50
2022-09-24T08:59:30.216Z,986.50
2022-09-24T09:00:30.162Z,986.51
2022-09-24T09:01:30.263Z,986.54
2022-09-24T09:02:30.112Z,986.53
2022-09-24T09:03:29.917Z,986.55
2022-09-24T09:04:29.842Z,986.57
2022-09-24T09:05:29.766Z,986.57
2022-09-24T09:06:29.692Z,986.56
2022-09-24T09:07:29.617Z,986.56
2022-09-24T09:08:50.511Z,986.55
2022-09-24T09:09:29.465Z,986.57
2022-09-24T09:10:29.393Z,986.53
2022-09-24T09:11:29.319Z,986.50
2022-09-24T09:12:29.245Z,986.49
2022-09-24T09:13:29.170Z,986.50
2022-09-24T09:14:31.456Z,986.52
2022-09-24T09:15:29.020Z,986.52
2022-09-24T09:16:29.034Z,986.48
2022-09-24T09:17:28.873Z,986.46
2022-09-24T09:18:28.796Z,986.42
2022-09-24T09:19:28.719Z,986.39
2022-09-24T09:20:28.645Z,986.39
2022-09-24T09:21:28.571Z,986.38
2022-09-24T09:22:28.495Z,986.37
2022-09-24T09:23:28.419Z,986.39
2022-09-24T09:24:28.347Z,986.40
2022-09-24T09:25:28.270Z,986.41
2022-09-24T09:26:28.199Z,986.45
2022-09-24T09:27:28.124Z,986.43
2022-09-24T09:28:28.048Z,986.45
2022-09-24T09:29:27.996Z,986.49
2022-09-24T09:30:27.900Z,986.55
2022-09-24T09:31:27.877Z,986.53
2022-09-24T09:32:27.866Z,986.53
2022-09-24T09:33:27.678Z,986.53
2022-09-24T09:34:27.602Z,986.55
2022-09-24T09:35:27.628Z,986.51
2022-09-24T09:36:27.454Z,986.56
2022-09-24T09:37:27.382Z,986.56
2022-09-24T09:38:27.308Z,986.56
2022-09-24T09:39:27.229Z,986.55
2022-09-24T11:15:53.811Z,986.22
2022-09-24T11:16:53.510Z,986.21
2022-09-24T11:17:53.439Z,986.22
2022-09-24T11:18:53.366Z,986.17
2022-09-24T11:19:53.291Z,986.21
2022-09-24T11:20:53.220Z,986.23
2022-09-24T11:21:53.144Z,986.21
2022-09-24T11:22:53.072Z,986.20
2022-09-24T11:23:53.001Z,986.18
2022-09-24T11:24:52.922Z,986.22
2022-09-24T11:25:52.852Z,986.22
2022-09-24T11:27:47.609Z,986.24
2022-09-24T11:28:46.318Z,986.30
2022-09-24T11:29:46.246Z,986.27
2022-09-24T11:30:46.172Z,986.25
2022-09-24T11:31:46.164Z,986.28
2022-09-24T11:32:46.027Z,986.30
2022-09-24T11:33:45.955Z,986.28
2022-09-24T11:34:45.879Z,986.35
2022-09-24T11:35:45.811Z,986.23
2022-09-24T11:36:45.936Z,986.27
2022-09-24T11:37:45.665Z,986.21
2022-09-24T11:38:45.592Z,986.22
2022-09-24T11:39:45.520Z,986.20
2022-09-24T11:40:45.549Z,986.30
2022-09-24T11:41:45.426Z,986.25
2022-09-24T11:42:45.304Z,986.26
2022-09-24T11:43:45.232Z,986.26
2022-09-24T11:44:45.158Z,986.18
2022-09-24T11:45:45.086Z,986.19
2022-09-24T11:46:45.097Z,986.25
2022-09-24T11:47:45.346Z,986.22
2022-09-24T11:48:44.871Z,986.26
2022-09-24T11:49:48.432Z,986.23
2022-09-24T11:50:47.749Z,986.20
2022-09-24T11:51:44.660Z,986.21
2022-09-24T11:52:44.584Z,986.20
2022-09-24T11:53:44.521Z,986.21
2022-09-24T11:54:44.443Z,986.17
2022-09-24T11:55:44.381Z,986.18
2022-09-24T11:56:44.300Z,986.22
2022-09-24T11:57:44.229Z,986.16
2022-09-24T11:58:44.158Z,986.21
2022-09-24T11:59:44.089Z,986.24
2022-09-24T12:00:44.015Z,986.14
2022-09-24T12:01:43.996Z,986.07
2022-09-24T12:02:43.951Z,986.13
2022-09-24T12:03:43.820Z,986.08
2022-09-24T12:04:43.729Z,986.08
2022-09-24T12:05:43.658Z,986.07
2022-09-24T12:06:43.613Z,986.04
2022-09-24T12:07:43.515Z,986.00
2022-09-24T12:08:43.444Z,985.98
2022-09-24T12:09:43.374Z,985.98
2022-09-24T12:10:43.302Z,986.00
2022-09-24T12:11:43.234Z,985.96
2022-09-24T12:12:43.159Z,985.92
2022-09-24T12:13:43.089Z,985.88
2022-09-24T12:14:43.065Z,985.81
2022-09-24T12:15:42.995Z,985.88
2022-09-24T12:16:42.875Z,985.82
2022-09-24T12:17:42.801Z,985.85
2022-09-24T12:18:42.730Z,985.83
2022-09-24T12:19:42.682Z,985.78
2022-09-24T12:20:42.586Z,985.78
2022-09-24T12:21:42.514Z,985.82
2022-09-24T12:22:42.444Z,985.86
2022-09-24T12:23:43.789Z,985.84
2022-09-24T12:24:42.398Z,985.85
2022-09-24T12:25:42.429Z,985.86
2022-09-24T12:26:42.155Z,985.86
2022-09-24T12:27:42.084Z,985.87
2022-09-24T12:28:42.010Z,985.88
2022-09-24T12:29:41.939Z,985.90
2022-09-24T12:30:41.867Z,985.96
2022-09-24T12:31:41.873Z,985.97
2022-09-24T12:32:41.721Z,985.88
2022-09-24T12:33:41.648Z,985.89
2022-09-24T12:34:41.577Z,985.87
2022-09-24T12:35:41.527Z,985.87
2022-09-24T12:36:41.432Z,985.90
2022-09-24T12:37:41.363Z,985.90
2022-09-24T12:38:41.288Z,985.93
2022-09-24T12:39:41.226Z,985.93
2022-09-24T12:40:41.242Z,985.97
2022-09-24T12:41:41.075Z,985.96
2022-09-24T12:42:41.000Z,985.89
2022-09-24T12:43:40.930Z,985.91
2022-09-24T12:44:40.856Z,985.92
2022-09-24T12:45:40.786Z,985.90
2022-09-24T12:46:40.757Z,986.00
2022-09-24T12:47:40.640Z,986.03
2022-09-24T12:48:40.567Z,986.02
2022-09-24T12:49:40.496Z,985.95
2022-09-24T12:50:40.424Z,985.83
2022-09-24T12:51:40.374Z,985.82
2022-09-24T12:52:40.289Z,985.79
2022-09-24T12:53:40.255Z,985.78
2022-09-24T12:54:40.137Z,985.75
2022-09-24T12:55:40.073Z,985.68
2022-09-24T12:56:39.994Z,985.74
2022-09-24T12:57:39.964Z,985.78
2022-09-24T12:58:39.857Z,985.72
2022-09-24T12:59:39.783Z,985.77
2022-09-24T13:00:39.715Z,985.76
2022-09-24T13:01:39.770Z,985.77
2022-09-24T13:02:39.726Z,985.78
2022-09-24T13:03:43.351Z,985.75
2022-09-24T13:04:39.420Z,985.75
2022-09-24T13:05:39.352Z,985.78
2022-09-24T13:06:39.275Z,985.76
2022-09-24T13:07:39.226Z,985.75
2022-09-24T13:08:39.280Z,985.75
2022-09-24T13:09:39.058Z,985.79
2022-09-24T13:10:39.167Z,985.79
2022-09-24T13:11:38.914Z,985.74
2022-09-24T13:12:38.842Z,985.78
2022-09-24T13:13:38.772Z,985.89
2022-09-24T13:14:38.703Z,985.78
2022-09-24T13:15:38.860Z,985.73
2022-09-24T13:16:38.552Z,985.63
2022-09-24T13:17:38.479Z,985.70
2022-09-24T13:18:38.411Z,985.63
2022-09-24T13:22:14.000Z,985.54
2022-09-24T13:23:13.953Z,985.52
2022-09-24T13:24:13.857Z,985.49
2022-09-24T13:25:13.788Z,985.58
2022-09-24T13:26:13.716Z,985.53
2022-09-24T13:27:13.642Z,985.52
2022-09-24T13:28:13.571Z,985.53
2022-09-24T13:29:13.499Z,985.56
2022-09-24T13:30:13.428Z,985.56
2022-09-24T13:31:13.464Z,985.58
2022-09-24T13:32:13.284Z,985.59
2022-09-24T13:33:13.211Z,985.59
2022-09-24T13:34:13.141Z,985.57
2022-09-24T13:35:15.885Z,985.54
2022-09-24T13:36:12.999Z,985.56
2022-09-24T13:37:12.925Z,985.56
2022-09-24T13:38:12.851Z,985.57
2022-09-24T13:39:12.859Z,985.60
2022-09-24T13:40:12.755Z,985.62
2022-09-24T13:41:12.639Z,985.62
2022-09-24T13:42:12.565Z,985.66
2022-09-24T13:43:12.491Z,985.63
2022-09-24T13:44:12.417Z,985.62
2022-09-24T13:45:12.347Z,985.61
2022-09-24T13:46:12.348Z,985.62
2022-09-24T13:47:12.201Z,985.61
2022-09-24T13:48:12.134Z,985.62
2022-09-24T13:49:12.114Z,985.60
2022-09-24T13:50:11.985Z,985.63
2022-09-24T13:51:11.917Z,985.63
2022-09-24T13:52:11.842Z,985.59
2022-09-24T13:53:11.769Z,985.61
2022-09-24T13:54:11.698Z,985.60
2022-09-24T13:55:11.645Z,985.60
2022-09-24T13:56:11.553Z,985.56
2022-09-24T13:57:11.480Z,985.57
2022-09-24T13:58:11.409Z,985.53
2022-09-24T13:59:11.472Z,985.56
2022-09-24T14:00:11.281Z,985.59
2022-09-24T14:01:13.166Z,985.55
2022-09-24T14:02:11.183Z,985.57
2022-09-24T14:03:11.134Z,985.59
2022-09-24T14:04:10.977Z,985.54
2022-09-24T14:05:10.904Z,985.52
2022-09-24T14:06:10.851Z,985.54
2022-09-24T14:07:10.761Z,985.52
2022-09-24T14:08:10.690Z,985.53
2022-09-24T14:09:10.652Z,985.51
2022-09-24T14:10:10.544Z,985.55
2022-09-24T14:11:10.488Z,985.54
2022-09-24T14:12:10.398Z,985.54
2022-09-24T14:13:10.328Z,985.54
2022-09-24T14:14:10.254Z,985.50
2022-09-24T14:15:10.181Z,985.51
2022-09-24T14:16:10.253Z,985.48
2022-09-24T14:17:10.035Z,985.45
2022-09-24T14:18:12.917Z,985.46
2022-09-24T14:19:09.996Z,985.47
2022-09-24T14:20:10.021Z,985.48
2022-09-24T14:21:09.744Z,985.48
2022-09-24T14:22:09.672Z,985.46
2022-09-24T14:23:09.600Z,985.50
2022-09-24T14:24:09.529Z,985.51
2022-09-24T14:25:09.464Z,985.50
2022-09-24T14:26:09.383Z,985.47
2022-09-24T14:27:09.415Z,985.44
2022-09-24T14:28:09.388Z,985.46
2022-09-24T14:41:53.806Z,985.46
2022-09-24T14:42:53.756Z,985.46
2022-09-24T14:43:53.664Z,985.41
2022-09-24T14:44:53.586Z,985.46
2022-09-24T14:45:53.515Z,985.41
2022-09-24T14:46:53.681Z,985.43
2022-09-24T14:47:53.369Z,985.40
2022-09-24T14:48:53.296Z,985.45
2022-09-24T14:49:53.222Z,985.41
2022-09-24T14:50:53.152Z,985.32
2022-09-24T14:51:53.081Z,985.36
2022-09-24T14:52:53.010Z,985.38
2022-09-24T14:53:52.935Z,985.40
2022-09-24T14:54:52.867Z,985.34
2022-09-24T14:55:52.795Z,985.36
2022-09-24T14:56:52.783Z,985.37
2022-09-24T14:57:57.489Z,985.31
2022-09-24T14:58:52.594Z,985.33
2022-09-24T14:59:52.509Z,985.31
2022-09-24T15:00:52.429Z,985.27
2022-09-24T15:01:52.464Z,985.24
2022-09-24T15:02:52.284Z,985.26
2022-09-24T15:03:52.214Z,985.22
2022-09-24T15:04:52.237Z,985.22
2022-09-24T15:05:52.084Z,985.23
2022-09-24T15:06:51.993Z,985.21
2022-09-24T15:07:51.922Z,985.22